Time;durP1;ratioP1;P1;durP2;ratioP2;P2;SDS_P1;SDS_P2;PMS_P1;PMS_P2;Temp;Humidity;BMP_temperature;BMP_pressure;BME280_temperature;BME280_humidity;BME280_pressure;Samples;Min_cycle;Max_cycle;Signal;HPM_P1;HPM_P2
2023/05/15 00:01:29;;;;;;;10.68;9.98;;;13.70;62.30;;;;;;20519;6841;277715;-77
2023/05/15 00:03:54;;;;;;;8.40;7.90;;;13.70;62.20;;;;;;20732;6841;117745;-78
2023/05/15 00:06:20;;;;;;;10.02;9.25;;;13.70;62.30;;;;;;20513;6841;282876;-77
2023/05/15 00:08:46;;;;;;;8.52;7.93;;;13.70;61.80;;;;;;20688;6856;121695;-76
2023/05/15 00:11:11;;;;;;;10.10;9.40;;;13.60;61.90;;;;;;20507;6841;278879;-78
2023/05/15 00:13:40;;;;;;;9.85;9.25;;;13.70;61.30;;;;;;20527;6841;278867;-76
2023/05/15 00:16:09;;;;;;;10.33;9.70;;;13.90;60.60;;;;;;20523;6841;308716;-76
2023/05/15 00:18:34;;;;;;;8.83;8.27;;;14.10;60.10;;;;;;20729;6841;118645;-76
2023/05/15 00:21:00;;;;;;;8.03;7.43;;;13.60;61.90;;;;;;20712;6841;118053;-76
2023/05/15 00:23:26;;;;;;;9.63;9.03;;;13.60;61.60;;;;;;20530;6841;281865;-79
2023/05/15 00:25:52;;;;;;;10.20;9.50;;;13.60;61.80;;;;;;20525;6841;278942;-79
2023/05/15 00:28:17;;;;;;;9.10;8.50;;;13.90;60.80;;;;;;20728;6841;117287;-76
2023/05/15 00:30:43;;;;;;;9.82;9.23;;;13.80;60.90;;;;;;20534;6841;277732;-76
2023/05/15 00:33:09;;;;;;;9.70;9.10;;;13.80;60.90;;;;;;20502;6841;420177;-76
2023/05/15 00:35:35;;;;;;;7.70;7.30;;;13.90;60.30;;;;;;20733;6841;118732;-76
2023/05/15 00:38:01;;;;;;;7.43;7.03;;;13.80;60.20;;;;;;20784;6841;116362;-76
2023/05/15 00:40:27;;;;;;;7.70;7.03;;;13.20;62.20;;;;;;20735;6841;117188;-76
2023/05/15 00:42:54;;;;;;;9.48;8.63;;;13.20;62.20;;;;;;20502;6841;307133;-78
2023/05/15 00:45:20;;;;;;;22.13;9.85;;;13.40;61.70;;;;;;20519;6841;341976;-76
2023/05/15 00:47:45;;;;;;;190.40;12.93;;;13.70;60.60;;;;;;20724;6841;117803;-76
2023/05/15 00:50:11;;;;;;;655.60;22.37;;;13.40;61.50;;;;;;20683;6856;117895;-76
2023/05/15 00:52:37;;;;;;;268.50;15.63;;;13.30;61.40;;;;;;20524;6841;280701;-76
2023/05/15 00:55:03;;;;;;;465.17;18.95;;;13.40;62.20;;;;;;20457;6856;279260;-77
2023/05/15 00:57:30;;;;;;;417.27;17.13;;;13.70;61.20;;;;;;20730;6839;118639;-77
2023/05/15 00:59:55;;;;;;;131.63;12.85;;;13.60;61.40;;;;;;20480;6855;312391;-77
2023/05/15 01:02:21;;;;;;;493.00;19.13;;;13.70;61.70;;;;;;20469;6855;325991;-77
2023/05/15 01:04:46;;;;;;;412.17;18.90;;;13.90;61.10;;;;;;20522;6841;294420;-77
2023/05/15 01:07:12;;;;;;;324.97;17.07;;;14.10;60.40;;;;;;20705;6841;119659;-77
2023/05/15 01:09:38;;;;;;;209.73;14.73;;;14.00;61.30;;;;;;20520;6841;341593;-77
2023/05/15 01:12:04;;;;;;;192.15;14.60;;;14.00;61.30;;;;;;20505;6841;307191;-77
2023/05/15 01:14:29;;;;;;;175.82;14.90;;;14.20;60.80;;;;;;20505;6841;336702;-77
2023/05/15 01:16:55;;;;;;;396.00;18.80;;;14.30;60.20;;;;;;20712;6841;119835;-77
2023/05/15 01:19:21;;;;;;;77.82;11.93;;;14.20;60.60;;;;;;20530;6841;278336;-77
2023/05/15 01:22:16;;;;;;;118.05;11.68;;;14.10;60.30;;;;;;20517;6841;307196;-77
2023/05/15 01:24:41;;;;;;;167.13;11.97;;;14.30;59.90;;;;;;20730;6841;119474;-77
2023/05/15 01:27:34;;;;;;;163.20;11.43;;;14.00;60.30;;;;;;20662;6841;118556;-77
2023/05/15 01:30:26;;;;;;;129.90;11.37;;;13.70;61.30;;;;;;19351;6841;122935;-77
2023/05/15 01:32:54;;;;;;;54.17;9.27;;;13.40;62.30;;;;;;20702;6841;118947;-77
2023/05/15 01:35:20;;;;;;;29.33;8.60;;;13.20;63.10;;;;;;20655;6856;123415;-76
2023/05/15 01:37:48;;;;;;;37.38;11.40;;;13.00;63.90;;;;;;20505;6841;278963;-76
2023/05/15 01:40:11;;;;;;;64.40;10.40;;;13.20;63.50;;;;;;20670;6856;118017;-76
2023/05/15 01:42:36;;;;;;;114.10;13.45;;;13.30;63.40;;;;;;20496;6841;307048;-76
2023/05/15 01:45:05;;;;;;;21.73;9.33;;;13.50;62.80;;;;;;20686;6841;117980;-76
2023/05/15 01:47:34;;;;;;;17.77;8.70;;;13.50;62.80;;;;;;20731;6841;121570;-76
2023/05/15 01:49:59;;;;;;;8.37;7.87;;;13.30;63.50;;;;;;20728;6841;118108;-77
2023/05/15 01:52:26;;;;;;;10.73;10.02;;;13.10;64.00;;;;;;20504;6841;308035;-76
2023/05/15 01:54:51;;;;;;;8.60;7.85;;;13.40;63.90;;;;;;20655;6856;119371;-78
2023/05/15 01:57:17;;;;;;;8.37;7.73;;;13.40;63.40;;;;;;20723;6841;117338;-76
2023/05/15 01:59:42;;;;;;;10.00;9.30;;;13.20;63.90;;;;;;20511;6841;337128;-77
2023/05/15 02:02:08;;;;;;;8.67;8.07;;;13.40;63.10;;;;;;20729;6841;118272;-76
2023/05/15 02:04:34;;;;;;;8.77;8.00;;;13.40;62.90;;;;;;20674;6841;117045;-76
2023/05/15 02:06:59;;;;;;;8.95;8.30;;;13.30;63.40;;;;;;20681;6841;118519;-76
2023/05/15 02:09:25;;;;;;;8.85;8.25;;;13.10;63.90;;;;;;20731;6839;117193;-76
2023/05/15 02:11:50;;;;;;;8.32;7.72;;;13.00;64.40;;;;;;20671;6840;117769;-76
2023/05/15 02:14:17;;;;;;;8.63;8.02;;;12.90;64.90;;;;;;20717;6841;117211;-76
2023/05/15 02:16:43;;;;;;;9.55;8.98;;;12.90;65.50;;;;;;20500;6841;340759;-76
2023/05/15 02:19:08;;;;;;;8.43;7.73;;;13.10;64.40;;;;;;20696;6841;117665;-76
2023/05/15 02:21:35;;;;;;;8.00;7.40;;;13.10;64.50;;;;;;20709;6841;118064;-76
2023/05/15 02:24:00;;;;;;;9.30;8.60;;;13.10;64.50;;;;;;20507;6841;282980;-76
2023/05/15 02:26:40;;;;;;;9.07;8.43;;;13.30;63.60;;;;;;20517;6841;278855;-76
2023/05/15 02:29:20;;;;;;;7.90;7.30;;;13.70;62.50;;;;;;20680;6841;122597;-76
2023/05/15 02:31:52;;;;;;;7.67;7.07;;;13.60;62.50;;;;;;20742;6841;119058;-76
2023/05/15 02:34:17;;;;;;;8.60;8.10;;;13.40;63.30;;;;;;20509;6841;307294;-76
2023/05/15 02:36:43;;;;;;;7.03;6.63;;;13.50;62.40;;;;;;20678;6841;118249;-76
2023/05/15 02:39:09;;;;;;;7.63;7.03;;;13.30;63.20;;;;;;20702;6841;122862;-76
2023/05/15 02:41:35;;;;;;;9.48;8.68;;;13.30;63.20;;;;;;20520;6841;307584;-76
2023/05/15 02:44:00;;;;;;;9.63;9.02;;;13.50;62.60;;;;;;20507;6841;307650;-76
2023/05/15 02:46:26;;;;;;;8.45;7.72;;;13.80;61.80;;;;;;20728;6841;117434;-76
2023/05/15 02:48:52;;;;;;;7.87;7.32;;;13.50;62.40;;;;;;20718;6841;117829;-76
2023/05/15 02:51:18;;;;;;;8.17;7.67;;;13.50;62.40;;;;;;20739;6841;117557;-76
2023/05/15 02:53:44;;;;;;;7.65;7.15;;;13.20;63.90;;;;;;20741;6841;117510;-77
2023/05/15 02:56:10;;;;;;;9.45;8.85;;;13.10;63.80;;;;;;20523;6841;337567;-76
2023/05/15 02:58:35;;;;;;;9.25;8.65;;;13.30;63.10;;;;;;20527;6841;278928;-76
2023/05/15 03:01:01;;;;;;;8.60;7.90;;;13.70;61.50;;;;;;20694;6841;123245;-76
2023/05/15 03:03:26;;;;;;;8.90;8.40;;;13.70;61.60;;;;;;20524;6841;278456;-76
2023/05/15 03:05:52;;;;;;;7.50;7.07;;;13.80;61.60;;;;;;20731;6841;117582;-77
2023/05/15 03:08:18;;;;;;;6.77;6.37;;;13.70;61.70;;;;;;20732;6841;118436;-76
2023/05/15 03:10:43;;;;;;;8.32;7.82;;;13.50;62.40;;;;;;20521;6841;310102;-76
2023/05/15 03:13:09;;;;;;;7.17;6.57;;;13.70;61.70;;;;;;20698;6841;118746;-76
2023/05/15 03:15:36;;;;;;;6.90;6.50;;;13.60;61.50;;;;;;20740;6841;117293;-76
2023/05/15 03:18:01;;;;;;;8.13;7.62;;;13.40;62.10;;;;;;20525;6841;337238;-77
2023/05/15 03:20:27;;;;;;;6.97;6.47;;;13.50;61.30;;;;;;20742;6839;117388;-76
2023/05/15 03:22:52;;;;;;;8.10;7.60;;;13.40;61.40;;;;;;20510;6840;336739;-77
2023/05/15 03:25:19;;;;;;;8.60;8.00;;;13.80;59.90;;;;;;20544;6841;279948;-78
2023/05/15 03:27:44;;;;;;;6.93;6.33;;;13.80;59.90;;;;;;20728;6841;117653;-77
2023/05/15 03:30:11;;;;;;;6.62;6.07;;;13.40;60.90;;;;;;20740;6841;117575;-77
2023/05/15 03:32:36;;;;;;;7.03;6.53;;;13.40;60.90;;;;;;20731;6841;119627;-77
2023/05/15 03:35:02;;;;;;;8.40;7.80;;;13.20;61.90;;;;;;20501;6841;307172;-77
2023/05/15 03:37:27;;;;;;;8.07;7.57;;;13.30;61.70;;;;;;20516;6841;307602;-78
2023/05/15 03:39:53;;;;;;;8.63;8.03;;;13.70;60.60;;;;;;20532;6841;278480;-77
2023/05/15 03:42:22;;;;;;;7.40;6.90;;;13.90;59.50;;;;;;20742;6841;117843;-77
2023/05/15 03:44:44;;;;;;;8.25;7.65;;;13.80;59.80;;;;;;20520;6841;336791;-77
2023/05/15 03:47:10;;;;;;;6.87;6.43;;;13.80;59.50;;;;;;20719;6841;119658;-78
2023/05/15 03:49:36;;;;;;;6.90;6.50;;;13.30;60.60;;;;;;20726;6841;118546;-78
2023/05/15 03:52:02;;;;;;;8.03;7.53;;;13.30;60.60;;;;;;20519;6841;311580;-76
2023/05/15 03:54:27;;;;;;;7.13;6.67;;;13.40;60.20;;;;;;20728;6841;119019;-77
2023/05/15 03:56:53;;;;;;;8.50;8.00;;;13.30;60.50;;;;;;20498;6841;312141;-78
2023/05/15 03:59:18;;;;;;;8.40;7.80;;;13.50;60.20;;;;;;20521;6841;279038;-78
2023/05/15 04:01:45;;;;;;;8.15;7.75;;;13.70;59.50;;;;;;20521;6841;319765;-77
2023/05/15 04:04:11;;;;;;;6.87;6.40;;;13.90;59.10;;;;;;20731;6841;117835;-78
2023/05/15 04:06:37;;;;;;;7.97;7.47;;;13.70;59.50;;;;;;20523;6841;282585;-78
2023/05/15 04:09:02;;;;;;;7.23;6.60;;;13.80;59.50;;;;;;20711;6841;118559;-82
2023/05/15 04:11:28;;;;;;;6.27;5.87;;;13.40;60.70;;;;;;20729;6841;117532;-77
2023/05/15 04:13:54;;;;;;;8.30;7.80;;;13.40;60.70;;;;;;20509;6841;280248;-78
2023/05/15 04:16:22;;;;;;;6.93;6.43;;;13.40;60.60;;;;;;20728;6841;117213;-78
2023/05/15 04:18:47;;;;;;;8.33;7.70;;;13.40;60.60;;;;;;20522;6841;307586;-78
2023/05/15 04:21:13;;;;;;;8.03;7.40;;;13.80;59.30;;;;;;20504;6841;308972;-78
2023/05/15 04:23:40;;;;;;;8.27;7.77;;;13.80;59.50;;;;;;20526;6841;282848;-78
2023/05/15 04:26:05;;;;;;;6.65;6.15;;;13.90;59.40;;;;;;20733;6841;117486;-78
2023/05/15 04:28:32;;;;;;;6.30;5.90;;;13.60;60.30;;;;;;20731;6841;117501;-78
2023/05/15 04:30:58;;;;;;;6.27;5.87;;;13.60;60.20;;;;;;20715;6841;118687;-78
2023/05/15 04:33:24;;;;;;;6.23;5.83;;;13.20;62.10;;;;;;20735;6839;117285;-81
2023/05/15 04:35:49;;;;;;;7.63;7.20;;;13.20;62.00;;;;;;20525;6841;337468;-78
2023/05/15 04:38:15;;;;;;;6.40;5.90;;;13.40;61.50;;;;;;20729;6841;118384;-79
2023/05/15 04:40:40;;;;;;;6.60;6.00;;;13.40;61.50;;;;;;20733;6841;117231;-79
2023/05/15 04:43:06;;;;;;;7.60;7.10;;;13.30;62.10;;;;;;20506;6841;278018;-80
2023/05/15 04:45:33;;;;;;;6.80;6.30;;;13.40;61.40;;;;;;20735;6841;117343;-78
2023/05/15 04:47:58;;;;;;;6.20;5.90;;;13.40;61.60;;;;;;20734;6841;117536;-78
2023/05/15 04:50:24;;;;;;;5.97;5.27;;;13.30;62.20;;;;;;20731;6841;119313;-79
2023/05/15 04:52:49;;;;;;;7.62;7.12;;;13.20;63.00;;;;;;20527;6841;321591;-78
2023/05/15 04:55:15;;;;;;;7.90;7.30;;;13.40;62.30;;;;;;20500;6841;312163;-81
2023/05/15 04:57:40;;;;;;;7.12;6.62;;;13.70;61.00;;;;;;20525;6841;278059;-78
2023/05/15 05:00:11;;;;;;;7.65;7.15;;;14.10;60.30;;;;;;20519;6841;340917;-81
2023/05/15 05:02:40;;;;;;;5.90;5.60;;;14.20;59.90;;;;;;20728;6841;121270;-81
2023/05/15 05:05:07;;;;;;;6.50;6.10;;;14.20;59.90;;;;;;20702;6841;117523;-80
2023/05/15 05:07:33;;;;;;;7.10;6.60;;;14.00;60.50;;;;;;20516;6841;283783;-79
2023/05/15 05:10:03;;;;;;;7.20;6.80;;;14.00;60.40;;;;;;20521;6841;277977;-79
2023/05/15 05:12:27;;;;;;;7.13;6.73;;;14.30;59.80;;;;;;20516;6841;278590;-80
2023/05/15 05:14:54;;;;;;;7.50;7.00;;;14.50;59.10;;;;;;20499;6841;278278;-78
2023/05/15 05:17:18;;;;;;;6.57;6.17;;;14.70;58.70;;;;;;20710;6841;118080;-80
2023/05/15 05:19:44;;;;;;;7.20;6.78;;;14.60;59.30;;;;;;20531;6841;278426;-81
2023/05/15 05:22:10;;;;;;;7.50;7.00;;;14.60;59.10;;;;;;20531;6841;307055;-77
2023/05/15 05:24:36;;;;;;;7.00;6.50;;;14.80;58.80;;;;;;20704;6841;118055;-77
2023/05/15 05:27:01;;;;;;;7.50;7.00;;;14.70;59.40;;;;;;20509;6841;278445;-81
2023/05/15 05:29:27;;;;;;;7.30;6.30;;;14.60;59.90;;;;;;20733;6841;121668;-80
2023/05/15 05:31:53;;;;;;;6.07;5.77;;;14.60;59.90;;;;;;20728;6841;121444;-83
2023/05/15 05:34:18;;;;;;;6.30;5.90;;;14.50;60.60;;;;;;20732;6841;117586;-82
2023/05/15 05:36:44;;;;;;;6.20;5.80;;;14.30;61.40;;;;;;20736;6841;117404;-83
2023/05/15 05:39:10;;;;;;;7.35;6.82;;;14.20;62.10;;;;;;20516;6841;401525;-81
2023/05/15 05:41:35;;;;;;;6.73;6.23;;;14.30;61.20;;;;;;20734;6841;117649;-85
2023/05/15 05:44:01;;;;;;;6.63;6.03;;;14.30;61.80;;;;;;20739;6839;118205;-81
2023/05/15 05:46:27;;;;;;;5.67;5.37;;;14.30;61.80;;;;;;20736;6840;117663;-79
2023/05/15 05:48:52;;;;;;;6.43;5.87;;;14.20;62.20;;;;;;20706;6841;120338;-81
2023/05/15 05:51:18;;;;;;;6.60;6.20;;;14.20;62.80;;;;;;20733;6841;121269;-80
2023/05/15 05:53:44;;;;;;;6.37;5.90;;;14.10;63.30;;;;;;20739;6841;116884;-83
2023/05/15 05:56:09;;;;;;;7.72;7.32;;;14.20;63.70;;;;;;20525;6841;337916;-84
2023/05/15 05:58:35;;;;;;;6.50;6.03;;;14.40;62.10;;;;;;20734;6841;117972;-82
2023/05/15 06:01:04;;;;;;;7.50;7.00;;;14.90;60.80;;;;;;20502;6841;306125;-77
2023/05/15 06:03:29;;;;;;;7.43;6.82;;;15.30;59.90;;;;;;20517;6841;336222;-78
2023/05/15 06:05:56;;;;;;;6.70;6.30;;;15.30;59.90;;;;;;20735;6841;119239;-85
2023/05/15 06:08:21;;;;;;;6.03;5.53;;;15.40;60.20;;;;;;20734;6841;117192;-80
2023/05/15 06:10:47;;;;;;;6.82;6.43;;;15.30;60.80;;;;;;20523;6841;278417;-80
2023/05/15 06:13:13;;;;;;;6.27;5.77;;;15.50;59.40;;;;;;20718;6841;118280;-80
2023/05/15 06:15:38;;;;;;;6.55;6.25;;;15.70;58.70;;;;;;20526;6841;307967;-82
2023/05/15 06:18:04;;;;;;;5.97;5.67;;;15.70;58.70;;;;;;20743;6841;117273;-80
2023/05/15 06:20:30;;;;;;;6.03;5.72;;;15.70;59.10;;;;;;20524;6841;277734;-79
2023/05/15 06:22:55;;;;;;;6.60;6.20;;;15.90;58.20;;;;;;20501;6841;307069;-82
2023/05/15 06:25:21;;;;;;;6.40;6.10;;;16.10;58.00;;;;;;20515;6841;308268;-84
2023/05/15 06:27:46;;;;;;;6.30;5.90;;;16.40;57.10;;;;;;20525;6841;282950;-79
2023/05/15 06:30:12;;;;;;;5.33;4.87;;;16.60;56.30;;;;;;20730;6841;117292;-83
2023/05/15 06:32:38;;;;;;;5.83;5.47;;;16.40;57.00;;;;;;20516;6841;337457;-80
2023/05/15 06:35:05;;;;;;;6.20;5.80;;;16.40;56.70;;;;;;20502;6841;277632;-78
2023/05/15 06:37:30;;;;;;;5.87;5.57;;;16.70;56.30;;;;;;20522;6841;292116;-78
2023/05/15 06:39:56;;;;;;;7.30;5.30;;;16.90;56.00;;;;;;20732;6841;117358;-80
2023/05/15 06:42:22;;;;;;;5.40;5.20;;;16.90;56.70;;;;;;20519;6841;341146;-82
2023/05/15 06:44:48;;;;;;;5.27;4.80;;;17.00;56.10;;;;;;20727;6841;119141;-78
2023/05/15 06:47:13;;;;;;;5.87;5.57;;;17.00;56.80;;;;;;20510;6841;307167;-78
2023/05/15 06:49:38;;;;;;;5.20;4.90;;;17.20;55.90;;;;;;20743;6841;120298;-78
2023/05/15 06:52:04;;;;;;;6.00;5.70;;;17.20;56.60;;;;;;20525;6841;336770;-78
2023/05/15 06:54:30;;;;;;;5.30;5.00;;;17.40;56.10;;;;;;20728;6841;117263;-79
2023/05/15 06:56:55;;;;;;;5.87;5.47;;;17.50;56.50;;;;;;20716;6839;129415;-78
2023/05/15 06:59:21;;;;;;;5.60;5.30;;;17.40;57.30;;;;;;20527;6841;311606;-78
2023/05/15 07:01:47;;;;;;;5.60;5.30;;;17.70;55.50;;;;;;20735;6841;117813;-80
2023/05/15 07:04:12;;;;;;;6.13;5.73;;;17.80;56.10;;;;;;20528;6841;277983;-78
2023/05/15 07:06:38;;;;;;;5.60;5.30;;;18.00;54.70;;;;;;20733;6841;117556;-78
2023/05/15 07:09:03;;;;;;;5.60;5.30;;;18.10;55.30;;;;;;20502;6841;307949;-78
2023/05/15 07:11:32;;;;;;;5.97;5.60;;;18.50;53.20;;;;;;20528;6841;308423;-78
2023/05/15 07:13:57;;;;;;;5.85;5.55;;;18.50;53.20;;;;;;20520;6841;337528;-81
2023/05/15 07:16:23;;;;;;;6.05;5.65;;;18.80;52.90;;;;;;20526;6841;336995;-78
2023/05/15 07:18:50;;;;;;;5.57;5.27;;;19.00;52.40;;;;;;20742;6841;117104;-79
2023/05/15 07:21:16;;;;;;;5.20;4.90;;;18.80;53.20;;;;;;20718;6841;119510;-79
2023/05/15 07:23:43;;;;;;;4.90;4.70;;;18.60;54.40;;;;;;20733;6841;117052;-79
2023/05/15 07:26:08;;;;;;;4.93;4.73;;;18.50;55.30;;;;;;20726;6841;117335;-80
2023/05/15 07:28:35;;;;;;;6.23;5.93;;;18.60;54.30;;;;;;20513;6841;336664;-79
2023/05/15 07:31:02;;;;;;;6.03;5.72;;;18.90;53.10;;;;;;20496;6841;337527;-79
2023/05/15 07:33:27;;;;;;;6.30;5.90;;;18.90;53.10;;;;;;20517;6841;307895;-81
2023/05/15 07:35:52;;;;;;;6.30;5.90;;;19.20;52.40;;;;;;20524;6841;282848;-80
2023/05/15 07:38:18;;;;;;;5.70;5.33;;;19.40;51.70;;;;;;20729;6841;117461;-80
2023/05/15 07:40:43;;;;;;;6.65;6.22;;;19.30;52.80;;;;;;20525;6841;312691;-82
2023/05/15 07:43:09;;;;;;;5.43;5.13;;;19.40;52.40;;;;;;20717;6841;119990;-82
2023/05/15 07:45:34;;;;;;;6.13;5.83;;;19.40;53.50;;;;;;20543;6841;278595;-84
2023/05/15 07:48:00;;;;;;;6.30;6.00;;;19.50;53.30;;;;;;20546;6841;286826;-84
2023/05/15 07:50:26;;;;;;;6.47;6.07;;;20.20;52.40;;;;;;20478;6841;278487;-82
2023/05/15 07:52:52;;;;;;;6.13;5.83;;;20.20;52.40;;;;;;20719;6841;120963;-82
2023/05/15 07:55:19;;;;;;;6.73;6.20;;;20.20;52.20;;;;;;20534;6841;336617;-81
2023/05/15 07:57:44;;;;;;;6.67;6.27;;;20.30;50.30;;;;;;20531;6841;281957;-81
2023/05/15 08:00:12;;;;;;;6.68;6.18;;;20.90;50.40;;;;;;20530;6841;308249;-81
2023/05/15 08:02:36;;;;;;;6.20;5.80;;;20.90;50.40;;;;;;20522;6841;307452;-82
2023/05/15 08:05:02;;;;;;;6.45;6.05;;;21.10;47.90;;;;;;20731;6841;117373;-82
2023/05/15 08:07:29;;;;;;;6.10;5.72;;;21.20;49.30;;;;;;20739;6840;119320;-84
2023/05/15 08:09:55;;;;;;;6.27;5.87;;;21.10;50.60;;;;;;20537;6840;299355;-82
2023/05/15 08:12:20;;;;;;;5.75;5.35;;;21.20;48.60;;;;;;20744;6841;117404;-85
2023/05/15 08:14:49;;;;;;;6.03;5.50;;;21.40;50.00;;;;;;20735;6841;120227;-81
2023/05/15 08:17:15;;;;;;;5.60;5.40;;;21.30;50.40;;;;;;20524;6841;277969;-83
2023/05/15 08:19:41;;;;;;;6.03;5.63;;;21.40;49.20;;;;;;20523;6841;307446;-84
2023/05/15 08:22:08;;;;;;;5.63;5.33;;;21.60;48.60;;;;;;20723;6841;117164;-82
2023/05/15 08:24:33;;;;;;;5.80;5.50;;;21.60;48.60;;;;;;20734;6841;117154;-84
2023/05/15 08:26:59;;;;;;;5.97;5.57;;;21.30;49.30;;;;;;20528;6841;307936;-83
2023/05/15 08:29:24;;;;;;;5.85;5.50;;;21.30;47.90;;;;;;20531;6841;277455;-81
2023/05/15 08:31:50;;;;;;;5.60;5.20;;;21.60;47.60;;;;;;20520;6841;311720;-82
2023/05/15 08:34:15;;;;;;;6.00;5.70;;;21.80;47.40;;;;;;20565;6841;315901;-83
2023/05/15 08:36:43;;;;;;;5.67;5.33;;;22.10;45.90;;;;;;20551;6841;303141;-84
2023/05/15 08:39:09;;;;;;;5.70;5.40;;;22.40;48.20;;;;;;20520;6841;337092;-85
2023/05/15 08:41:45;;;;;;;5.13;4.83;;;22.70;46.70;;;;;;20538;6841;280548;-80
2023/05/15 08:44:11;;;;;;;5.50;5.20;;;23.00;47.90;;;;;;20737;6841;117365;-84
2023/05/15 08:46:36;;;;;;;5.23;4.93;;;23.00;47.80;;;;;;20735;6841;117801;-82
2023/05/15 08:49:24;;;;;;;6.00;5.60;;;22.80;48.50;;;;;;20522;6841;277592;-85
2023/05/15 08:51:50;;;;;;;5.23;4.87;;;22.70;47.80;;;;;;19950;6841;122977;-86
2023/05/15 08:54:15;;;;;;;5.47;5.17;;;22.60;48.30;;;;;;20783;6841;116192;-89
2023/05/15 08:56:41;;;;;;;5.70;5.30;;;22.40;48.20;;;;;;20557;6841;311170;-82
2023/05/15 08:59:06;;;;;;;4.72;4.53;;;22.30;44.70;;;;;;20749;6841;118581;-87
2023/05/15 09:01:32;;;;;;;4.67;4.37;;;22.10;46.50;;;;;;20818;6841;119064;-88
2023/05/15 09:03:58;;;;;;;5.43;5.12;;;22.00;47.80;;;;;;20632;6841;306428;-87
2023/05/15 09:06:24;;;;;;;5.13;4.73;;;22.20;46.60;;;;;;20829;6841;70639;-87
2023/05/15 09:08:50;;;;;;;4.63;4.30;;;22.30;47.90;;;;;;20842;6841;95985;-89
2023/05/15 09:11:15;;;;;;;5.05;4.75;;;22.10;48.00;;;;;;20577;6846;335681;-89
2023/05/15 09:13:41;;;;;;;4.90;4.70;;;22.20;47.20;;;;;;20858;6837;66665;-88
2023/05/15 09:16:06;;;;;;;4.63;4.43;;;22.10;48.10;;;;;;20788;6837;117979;-87
2023/05/15 09:18:32;;;;;;;5.63;5.20;;;21.80;49.10;;;;;;20590;6838;282150;-81
2023/05/15 09:20:58;;;;;;;5.57;5.20;;;21.70;48.80;;;;;;20561;6832;306079;-88
2023/05/15 09:23:23;;;;;;;5.07;4.60;;;21.80;47.70;;;;;;20756;6832;116759;-88
2023/05/15 09:25:52;;;;;;;4.55;4.25;;;21.60;48.80;;;;;;20834;6832;116223;-88
2023/05/15 09:28:27;;;;;;;5.40;4.57;;;21.30;50.00;;;;;;20620;6832;119627;-88
2023/05/15 09:30:56;;;;;;;4.85;4.55;;;21.10;51.10;;;;;;20453;6833;277566;-86
2023/05/15 09:33:21;;;;;;;5.53;5.03;;;21.20;49.50;;;;;;20559;6833;306972;-86
2023/05/15 09:35:48;;;;;;;4.70;4.40;;;21.50;51.70;;;;;;20796;6821;117105;-86
2023/05/15 09:38:14;;;;;;;4.07;3.87;;;21.40;51.80;;;;;;20808;6821;119789;-87
2023/05/15 09:40:42;;;;;;;4.83;4.63;;;21.30;52.10;;;;;;20601;6821;277543;-83
2023/05/15 09:43:11;;;;;;;4.90;4.70;;;21.40;49.90;;;;;;20799;6821;119533;-85
2023/05/15 09:45:36;;;;;;;4.97;4.77;;;21.50;50.90;;;;;;20816;6821;117240;-85
2023/05/15 09:48:05;;;;;;;5.10;4.80;;;21.60;52.20;;;;;;20832;6821;117570;-83
2023/05/15 09:50:34;;;;;;;4.80;4.50;;;21.60;52.20;;;;;;20821;6821;117132;-83
2023/05/15 09:52:59;;;;;;;5.20;4.90;;;21.70;52.10;;;;;;20598;6821;277397;-84
2023/05/15 09:55:30;;;;;;;5.62;5.22;;;22.10;48.20;;;;;;20605;6821;308218;-81
2023/05/15 09:58:09;;;;;;;4.87;4.57;;;22.60;46.50;;;;;;20821;6821;116212;-81
2023/05/15 10:00:34;;;;;;;4.43;4.23;;;22.70;47.50;;;;;;20814;6821;117205;-81
2023/05/15 10:03:03;;;;;;;4.70;4.40;;;22.60;48.50;;;;;;20797;6821;117239;-81
2023/05/15 10:05:28;;;;;;;4.27;4.07;;;22.70;49.30;;;;;;20820;6821;117371;-82
2023/05/15 10:07:55;;;;;;;5.18;4.80;;;22.90;43.50;;;;;;20610;6821;306587;-81
2023/05/15 10:10:20;;;;;;;4.60;4.23;;;22.90;43.40;;;;;;20799;6821;119576;-81
2023/05/15 10:12:47;;;;;;;5.47;4.77;;;22.90;44.30;;;;;;20790;6821;117072;-84
2023/05/15 10:15:13;;;;;;;7.87;5.40;;;22.70;45.40;;;;;;20783;6821;119490;-84
2023/05/15 10:17:39;;;;;;;5.20;4.70;;;22.30;46.10;;;;;;20610;6821;310337;-81
2023/05/15 10:20:05;;;;;;;7.13;4.30;;;22.10;44.40;;;;;;20585;6821;278118;-81
2023/05/15 10:22:31;;;;;;;5.05;4.55;;;21.70;43.60;;;;;;20608;6821;307543;-79
2023/05/15 10:25:00;;;;;;;4.50;4.20;;;21.10;43.50;;;;;;20777;6821;123021;-80
2023/05/15 10:27:26;;;;;;;5.30;3.70;;;20.10;45.50;;;;;;20786;6821;117400;-78
2023/05/15 10:29:51;;;;;;;4.80;4.40;;;19.00;49.40;;;;;;20576;6820;326161;-79
2023/05/15 10:32:17;;;;;;;4.87;4.47;;;18.90;49.30;;;;;;20792;6820;117075;-78
2023/05/15 10:34:42;;;;;;;5.13;4.63;;;18.60;49.90;;;;;;20795;6821;117066;-81
2023/05/15 10:37:08;;;;;;;5.22;4.82;;;18.20;51.20;;;;;;20562;6821;306896;-79
2023/05/15 10:39:34;;;;;;;6.85;4.90;;;18.30;53.40;;;;;;20800;6821;117259;-77
2023/05/15 10:42:00;;;;;;;5.40;4.90;;;18.30;53.50;;;;;;20791;6821;117092;-77
2023/05/15 10:44:25;;;;;;;5.87;5.17;;;18.20;54.30;;;;;;20788;6821;117512;-77
2023/05/15 10:46:51;;;;;;;5.03;4.62;;;18.20;54.90;;;;;;20584;6821;340830;-80
2023/05/15 10:49:17;;;;;;;3.57;3.10;;;18.60;54.20;;;;;;20646;6821;117305;-79
2023/05/15 10:51:43;;;;;;;2.90;2.70;;;18.60;54.20;;;;;;20589;6821;306501;-77
2023/05/15 10:54:08;;;;;;;3.17;3.07;;;18.90;49.80;;;;;;20791;6821;123406;-79
2023/05/15 10:56:37;;;;;;;3.27;3.07;;;19.00;51.20;;;;;;20583;6821;276766;-81
2023/05/15 10:59:06;;;;;;;3.17;2.97;;;19.30;50.70;;;;;;20764;6821;117643;-77
2023/05/15 11:01:31;;;;;;;3.23;2.93;;;19.50;51.50;;;;;;20800;6821;117909;-80
2023/05/15 11:04:13;;;;;;;3.13;2.93;;;19.50;52.00;;;;;;20824;6821;117138;-80
2023/05/15 11:06:38;;;;;;;3.43;3.23;;;19.40;52.60;;;;;;20832;6821;119742;-85
2023/05/15 11:09:18;;;;;;;3.75;3.47;;;19.40;53.70;;;;;;20792;6821;117134;-77
2023/05/15 11:11:51;;;;;;;2.97;2.83;;;19.30;53.60;;;;;;20821;6821;116933;-82
2023/05/15 11:14:16;;;;;;;2.80;2.67;;;19.30;53.90;;;;;;20630;6821;279141;-78
2023/05/15 11:16:52;;;;;;;3.30;3.10;;;19.60;51.90;;;;;;20618;6821;282141;-79
2023/05/15 11:19:27;;;;;;;2.80;2.60;;;20.00;52.20;;;;;;20610;6821;301490;-82
2023/05/15 11:21:59;;;;;;;3.00;2.80;;;20.50;51.00;;;;;;20597;6821;320746;-80
2023/05/15 11:24:31;;;;;;;3.83;2.60;;;20.80;50.10;;;;;;20599;6821;277940;-83
2023/05/15 11:27:00;;;;;;;3.20;2.93;;;21.20;49.20;;;;;;20513;6821;277619;-86
2023/05/15 11:29:26;;;;;;;3.90;3.60;;;21.50;49.70;;;;;;20788;6821;120397;-83
2023/05/15 11:31:51;;;;;;;3.70;3.50;;;21.70;50.80;;;;;;20797;6821;117660;-84
2023/05/15 11:34:31;;;;;;;4.13;3.80;;;21.70;51.20;;;;;;20590;6821;277522;-82
2023/05/15 11:36:57;;;;;;;3.27;3.17;;;22.00;51.90;;;;;;20785;6821;117641;-82
2023/05/15 11:39:23;;;;;;;3.40;3.20;;;22.20;51.80;;;;;;20800;6821;121434;-85
2023/05/15 11:41:48;;;;;;;3.75;3.55;;;22.20;51.20;;;;;;20581;6819;306566;-86
2023/05/15 11:44:13;;;;;;;3.60;3.40;;;22.40;47.90;;;;;;20814;6820;116939;-85
2023/05/15 11:46:40;;;;;;;4.62;3.40;;;22.60;48.40;;;;;;20800;6821;119614;-82
2023/05/15 11:49:06;;;;;;;3.77;3.47;;;22.70;49.80;;;;;;20783;6821;120467;-79
2023/05/15 11:51:32;;;;;;;3.77;3.57;;;22.70;49.80;;;;;;20793;6821;123266;-81
2023/05/15 11:53:58;;;;;;;3.37;3.13;;;22.80;49.00;;;;;;20799;6821;117094;-83
2023/05/15 11:56:24;;;;;;;3.85;3.65;;;22.70;48.90;;;;;;20590;6821;340692;-83
2023/05/15 11:58:51;;;;;;;3.20;3.10;;;23.00;46.70;;;;;;20824;6821;116347;-81
2023/05/15 12:01:17;;;;;;;4.23;3.93;;;23.20;48.00;;;;;;20571;6821;277153;-81
2023/05/15 12:03:43;;;;;;;3.67;3.57;;;23.40;48.80;;;;;;20793;6821;122767;-79
2023/05/15 12:06:09;;;;;;;3.60;3.40;;;23.40;48.70;;;;;;20536;6821;277606;-79
2023/05/15 12:08:35;;;;;;;3.23;3.10;;;23.50;46.10;;;;;;20759;6821;117534;-79
2023/05/15 12:11:00;;;;;;;3.13;2.93;;;23.40;46.60;;;;;;20767;6821;117719;-79
2023/05/15 12:13:26;;;;;;;3.10;3.00;;;22.70;47.10;;;;;;20784;6821;117294;-79
2023/05/15 12:15:54;;;;;;;2.93;2.83;;;22.30;47.50;;;;;;20791;6821;117141;-78
2023/05/15 12:18:19;;;;;;;3.27;3.07;;;22.30;47.50;;;;;;20574;6821;277461;-79
2023/05/15 12:20:46;;;;;;;3.40;3.20;;;22.50;45.80;;;;;;20575;6821;311724;-79
2023/05/15 12:23:14;;;;;;;3.23;3.13;;;22.50;45.80;;;;;;20775;6821;118062;-79
2023/05/15 12:25:41;;;;;;;3.70;3.50;;;22.50;46.60;;;;;;20579;6821;306369;-79
2023/05/15 12:28:08;;;;;;;3.20;3.00;;;22.80;45.50;;;;;;20577;6821;306700;-79
2023/05/15 12:30:34;;;;;;;3.20;3.10;;;23.00;43.80;;;;;;20581;6821;312217;-79
2023/05/15 12:33:03;;;;;;;3.47;3.30;;;23.00;43.20;;;;;;20774;6821;117868;-79